createdAt,value
2024-04-24T00:00:59.417Z,2.40
2024-04-24T00:03:29.430Z,1.95
2024-04-24T00:05:59.464Z,1.80
2024-04-24T00:08:29.517Z,1.58
2024-04-24T00:11:02.194Z,1.52
2024-04-24T00:13:32.526Z,1.30
2024-04-24T00:16:02.572Z,1.30
2024-04-24T00:18:32.618Z,1.15
2024-04-24T00:21:02.617Z,1.20
2024-04-24T00:23:32.746Z,1.10
2024-04-24T00:26:05.450Z,1.10
2024-04-24T00:28:36.100Z,1.10
2024-04-24T00:31:06.140Z,1.13
2024-04-24T00:33:36.244Z,1.08
2024-04-24T00:36:06.542Z,0.90
2024-04-24T00:38:36.904Z,0.80
2024-04-24T00:41:09.783Z,0.90
2024-04-24T00:43:39.829Z,0.88
2024-04-24T00:46:11.339Z,0.80
2024-04-24T00:48:43.233Z,0.70
2024-04-24T00:51:13.958Z,0.80
2024-04-24T00:53:44.104Z,0.80
2024-04-24T00:56:17.317Z,0.80
2024-04-24T00:58:48.619Z,0.85
2024-04-24T01:01:19.015Z,0.85
2024-04-24T01:03:48.993Z,0.90
2024-04-24T01:06:19.118Z,0.82
2024-04-24T01:08:49.110Z,0.90
2024-04-24T01:11:21.749Z,0.98
2024-04-24T01:13:52.243Z,0.85
2024-04-24T01:16:27.168Z,0.80
2024-04-24T01:19:02.791Z,0.90
2024-04-24T01:21:40.904Z,0.90
2024-04-24T01:24:16.881Z,0.80
2024-04-24T01:26:52.225Z,0.90
2024-04-24T01:29:22.531Z,1.00
2024-04-24T01:31:53.319Z,0.90
2024-04-24T01:34:23.357Z,1.00
2024-04-24T01:36:53.321Z,1.40
2024-04-24T01:39:23.315Z,1.10
2024-04-24T01:41:56.006Z,1.15
2024-04-24T01:44:26.179Z,1.20
2024-04-24T01:46:56.235Z,1.42
2024-04-24T01:49:26.253Z,1.38
2024-04-24T01:51:56.326Z,1.23
2024-04-24T01:54:26.328Z,1.00
2024-04-24T01:56:58.913Z,1.38
2024-04-24T01:59:29.167Z,1.20
2024-04-24T02:01:59.285Z,1.30
2024-04-24T02:04:29.342Z,1.10
2024-04-24T02:06:59.508Z,1.30
2024-04-24T02:09:29.506Z,1.60
2024-04-24T02:12:10.190Z,1.50
2024-04-24T02:14:46.146Z,1.40
2024-04-24T02:17:16.530Z,1.65
2024-04-24T02:19:46.740Z,1.27
2024-04-24T02:22:16.722Z,1.50
2024-04-24T02:25:03.120Z,1.42
2024-04-24T02:27:35.756Z,1.30
2024-04-24T02:30:06.145Z,1.20
2024-04-24T02:32:36.420Z,1.50
2024-04-24T02:35:06.742Z,1.10
2024-04-24T02:37:39.229Z,1.00
2024-04-24T02:40:10.789Z,1.10
2024-04-24T02:42:43.456Z,1.25
2024-04-24T02:45:13.779Z,1.00
2024-04-24T02:47:43.832Z,1.20
2024-04-24T02:50:14.256Z,1.00
2024-04-24T02:52:44.295Z,1.10
2024-04-24T02:55:14.307Z,1.00
2024-04-24T02:57:47.155Z,0.82
2024-04-24T03:00:18.090Z,0.90
2024-04-24T03:02:48.680Z,1.20
2024-04-24T03:05:19.025Z,0.90
2024-04-24T03:07:49.252Z,1.13
2024-04-24T03:10:19.211Z,1.10
2024-04-24T03:12:52.130Z,1.20
2024-04-24T03:15:22.259Z,0.95
2024-04-24T03:17:52.416Z,1.30
2024-04-24T03:20:22.594Z,1.05
2024-04-24T03:22:52.679Z,1.05
2024-04-24T03:25:22.738Z,1.00
2024-04-24T03:27:55.334Z,1.00
2024-04-24T03:30:25.747Z,1.05
2024-04-24T03:32:56.416Z,1.10
2024-04-24T03:35:26.644Z,1.00
2024-04-24T03:37:56.729Z,1.00
2024-04-24T03:40:26.860Z,1.00
2024-04-24T03:42:59.413Z,1.00
2024-04-24T03:45:29.558Z,1.20
2024-04-24T03:47:59.686Z,1.05
2024-04-24T03:50:29.886Z,1.20
2024-04-24T03:52:59.921Z,1.10
2024-04-24T03:55:27.273Z,1.00
2024-04-24T03:57:59.965Z,1.10
2024-04-24T04:00:29.915Z,1.08
2024-04-24T04:03:00.007Z,0.90
2024-04-24T04:05:30.319Z,1.10
2024-04-24T04:08:01.247Z,1.10
2024-04-24T04:10:31.755Z,1.00
2024-04-24T04:13:05.821Z,1.15
2024-04-24T04:15:36.374Z,1.23
2024-04-24T04:18:06.831Z,1.00
2024-04-24T04:20:36.914Z,1.00
2024-04-24T04:23:07.441Z,1.10
2024-04-24T04:25:37.702Z,0.98
2024-04-24T04:28:10.752Z,1.20
2024-04-24T04:30:40.708Z,1.00
2024-04-24T04:33:10.794Z,1.23
2024-04-24T04:35:40.723Z,1.20
2024-04-24T04:38:10.748Z,1.00
2024-04-24T04:40:40.721Z,1.15
2024-04-24T04:43:13.402Z,1.30
2024-04-24T04:45:43.502Z,1.02
2024-04-24T04:48:13.610Z,1.10
2024-04-24T04:50:43.727Z,1.00
2024-04-24T04:53:13.701Z,1.15
2024-04-24T04:55:43.721Z,1.08
2024-04-24T04:58:16.530Z,1.00
2024-04-24T05:00:46.534Z,1.13
2024-04-24T05:03:16.709Z,1.00
2024-04-24T05:05:46.988Z,1.20
2024-04-24T05:08:17.146Z,1.20
2024-04-24T05:10:47.306Z,1.00
2024-04-24T05:13:20.410Z,1.00
2024-04-24T05:15:51.134Z,1.10
2024-04-24T05:18:25.345Z,1.20
2024-04-24T05:20:55.736Z,0.90
2024-04-24T05:23:25.877Z,1.00
2024-04-24T05:25:56.974Z,1.30
2024-04-24T05:28:48.255Z,1.20
2024-04-24T05:31:19.490Z,0.98
2024-04-24T05:33:49.634Z,1.00
2024-04-24T05:36:19.703Z,1.00
2024-04-24T05:38:49.751Z,0.93
2024-04-24T05:41:19.773Z,1.00
2024-04-24T05:43:52.623Z,1.00
2024-04-24T05:46:22.998Z,1.08
2024-04-24T05:48:53.445Z,1.27
2024-04-24T05:51:23.641Z,1.10
2024-04-24T05:53:53.842Z,1.27
2024-04-24T05:56:23.800Z,1.17
2024-04-24T05:58:56.536Z,1.20
2024-04-24T06:01:23.997Z,1.15
2024-04-24T06:03:54.150Z,1.20
2024-04-24T06:06:24.329Z,1.10
2024-04-24T06:08:54.535Z,1.10
2024-04-24T06:11:24.801Z,1.00
2024-04-24T06:13:57.619Z,1.00
2024-04-24T06:16:27.821Z,0.90
2024-04-24T06:18:58.343Z,1.00
2024-04-24T06:21:30.043Z,1.45
2024-04-24T06:24:00.115Z,1.15
2024-04-24T06:26:30.360Z,1.13
2024-04-24T06:29:03.158Z,1.10
2024-04-24T06:31:33.318Z,1.15
2024-04-24T06:34:03.373Z,1.20
2024-04-24T06:36:33.520Z,1.08
2024-04-24T06:39:04.953Z,0.90
2024-04-24T06:41:35.117Z,1.20
2024-04-24T06:44:08.155Z,1.20
2024-04-24T06:46:38.520Z,0.93
2024-04-24T06:49:08.664Z,1.00
2024-04-24T06:51:38.769Z,1.02
2024-04-24T06:54:08.960Z,1.10
2024-04-24T06:56:40.729Z,1.52
2024-04-24T06:59:14.081Z,1.00
2024-04-24T07:01:44.540Z,1.00
2024-04-24T07:04:14.727Z,0.98
2024-04-24T07:06:44.813Z,1.20
2024-04-24T07:09:15.264Z,1.05
2024-04-24T07:11:45.612Z,0.82
2024-04-24T07:14:18.608Z,1.10
2024-04-24T07:16:49.123Z,1.00
2024-04-24T07:19:19.420Z,1.40
2024-04-24T07:21:49.544Z,1.10
2024-04-24T07:24:19.695Z,1.10
2024-04-24T07:26:49.878Z,1.17
2024-04-24T07:29:22.666Z,1.00
2024-04-24T07:31:52.850Z,1.20
2024-04-24T07:34:23.001Z,1.10
2024-04-24T07:36:53.033Z,1.25
2024-04-24T07:39:23.355Z,1.10
2024-04-24T07:41:53.583Z,1.13
2024-04-24T07:44:26.268Z,1.00
2024-04-24T07:46:56.398Z,1.00
2024-04-24T07:49:26.924Z,1.33
2024-04-24T07:51:56.937Z,1.23
2024-04-24T07:54:27.062Z,1.20
2024-04-24T07:56:57.320Z,1.30
2024-04-24T07:59:31.723Z,1.13
2024-04-24T08:02:02.867Z,1.00
2024-04-24T08:04:32.981Z,1.17
2024-04-24T08:07:03.315Z,1.17
2024-04-24T08:09:33.435Z,1.00
2024-04-24T08:12:08.860Z,0.80
2024-04-24T08:14:42.482Z,1.02
2024-04-24T08:17:12.600Z,1.20
2024-04-24T08:19:42.627Z,1.00
2024-04-24T08:22:12.754Z,1.10
2024-04-24T08:24:42.771Z,1.10
2024-04-24T08:27:13.017Z,1.00
2024-04-24T08:29:45.919Z,0.90
2024-04-24T08:32:16.148Z,0.98
2024-04-24T08:34:46.216Z,0.95
2024-04-24T08:37:16.272Z,0.95
2024-04-24T08:39:46.227Z,1.00
2024-04-24T08:42:16.481Z,1.00
2024-04-24T08:44:49.728Z,1.10
2024-04-24T08:47:20.850Z,1.08
2024-04-24T08:49:54.845Z,0.98
2024-04-24T08:52:26.422Z,1.20
2024-04-24T08:55:01.620Z,1.17
2024-04-24T08:57:32.705Z,1.20
2024-04-24T09:00:07.028Z,1.15
2024-04-24T09:02:42.982Z,1.10
2024-04-24T09:05:14.856Z,1.05
2024-04-24T09:07:46.105Z,1.05
2024-04-24T09:10:18.635Z,0.95
2024-04-24T09:12:49.794Z,1.00
2024-04-24T09:15:23.074Z,1.10
2024-04-24T09:17:53.231Z,1.08
2024-04-24T09:20:23.697Z,0.80
2024-04-24T09:22:53.756Z,1.02
2024-04-24T09:25:23.784Z,1.10
2024-04-24T09:27:55.868Z,1.17
2024-04-24T09:30:31.272Z,1.38
2024-04-24T09:33:01.489Z,1.08
2024-04-24T09:35:31.710Z,1.20
2024-04-24T09:38:02.191Z,1.10
2024-04-24T09:40:32.641Z,1.00
2024-04-24T09:43:02.911Z,1.00
2024-04-24T09:45:35.919Z,1.45
2024-04-24T09:48:07.435Z,1.20
2024-04-24T09:50:37.757Z,1.17
2024-04-24T09:53:08.443Z,1.10
2024-04-24T09:55:42.329Z,1.40
2024-04-24T09:58:15.107Z,1.15
2024-04-24T10:00:49.001Z,1.08
2024-04-24T10:03:23.089Z,1.00
2024-04-24T10:05:57.493Z,1.10
2024-04-24T10:08:35.061Z,1.10
2024-04-24T10:11:07.694Z,1.05
2024-04-24T10:13:39.436Z,1.05
2024-04-24T10:16:12.562Z,1.10
2024-04-24T10:18:45.139Z,1.00
2024-04-24T10:21:16.744Z,1.02
2024-04-24T10:23:48.751Z,1.10
2024-04-24T10:26:20.288Z,0.95
2024-04-24T10:28:52.926Z,1.25
2024-04-24T10:31:27.292Z,1.10
2024-04-24T10:33:59.455Z,0.90
2024-04-24T10:36:30.575Z,1.10
2024-04-24T10:39:00.707Z,1.10
2024-04-24T10:41:31.171Z,1.10
2024-04-24T10:44:01.479Z,1.40
2024-04-24T10:46:34.185Z,1.30
2024-04-24T10:49:04.424Z,1.30
2024-04-24T10:51:35.893Z,1.13
2024-04-24T10:54:17.246Z,1.00
2024-04-24T10:56:48.850Z,1.00
2024-04-24T10:59:19.712Z,0.80
2024-04-24T11:01:54.462Z,0.93
2024-04-24T11:04:27.206Z,0.93
2024-04-24T11:06:57.750Z,1.00
2024-04-24T11:09:28.496Z,0.93
2024-04-24T11:12:00.742Z,0.98
2024-04-24T11:14:42.358Z,0.98
2024-04-24T11:17:15.061Z,0.90
2024-04-24T11:19:45.762Z,0.88
2024-04-24T11:22:16.047Z,1.02
2024-04-24T11:24:46.241Z,1.00
2024-04-24T11:27:16.674Z,1.20
2024-04-24T11:29:46.817Z,1.08
2024-04-24T11:32:20.737Z,0.93
2024-04-24T11:34:52.160Z,1.23
2024-04-24T11:37:23.571Z,1.00
2024-04-24T11:39:53.944Z,0.85
2024-04-24T11:42:24.301Z,0.88
2024-04-24T11:44:54.847Z,0.80
2024-04-24T11:47:28.249Z,0.90
2024-04-24T11:49:58.767Z,1.02
2024-04-24T11:52:29.906Z,0.90
2024-04-24T11:55:00.067Z,1.02
2024-04-24T11:57:30.310Z,1.10
2024-04-24T12:00:04.476Z,0.98
2024-04-24T12:02:40.473Z,1.25
2024-04-24T12:05:11.208Z,1.00
2024-04-24T12:07:46.744Z,1.10
2024-04-24T12:10:25.758Z,1.40
2024-04-24T12:12:57.961Z,1.00
2024-04-24T12:15:28.096Z,1.13
2024-04-24T12:18:00.874Z,1.10
2024-04-24T12:20:31.069Z,1.10
2024-04-24T12:23:02.666Z,1.00
2024-04-24T12:25:32.759Z,0.90
2024-04-24T12:28:03.127Z,1.20
2024-04-24T12:30:33.389Z,1.13
2024-04-24T12:33:06.504Z,1.10
2024-04-24T12:35:36.717Z,1.00
2024-04-24T12:38:07.583Z,1.20
2024-04-24T12:40:38.138Z,1.10
2024-04-24T12:43:08.450Z,1.20
2024-04-24T12:45:38.451Z,1.30
2024-04-24T12:48:11.699Z,1.13
2024-04-24T12:50:41.772Z,1.20
2024-04-24T12:53:12.015Z,1.00
2024-04-24T12:55:42.140Z,1.27
2024-04-24T12:58:14.967Z,1.45
2024-04-24T13:00:45.255Z,1.10
2024-04-24T13:03:20.029Z,1.10
2024-04-24T13:05:50.390Z,0.98
2024-04-24T13:08:20.688Z,0.95
2024-04-24T13:10:50.858Z,1.08
2024-04-24T13:13:20.950Z,0.90
2024-04-24T13:15:51.069Z,0.80
2024-04-24T13:18:25.354Z,0.80
2024-04-24T13:20:57.329Z,0.80
2024-04-24T13:23:27.656Z,0.85
2024-04-24T13:25:58.010Z,0.80
2024-04-24T13:28:28.775Z,0.90
2024-04-24T13:31:03.235Z,0.88
2024-04-24T13:33:37.400Z,1.00
2024-04-24T13:36:08.636Z,0.73
2024-04-24T13:38:38.829Z,0.80
2024-04-24T13:41:09.647Z,1.00
2024-04-24T13:43:40.062Z,1.10
2024-04-24T13:46:10.157Z,0.90
2024-04-24T13:48:42.970Z,1.00
2024-04-24T13:51:13.175Z,0.90
2024-04-24T13:53:43.274Z,0.90
2024-04-24T13:56:13.343Z,1.20
2024-04-24T13:58:43.547Z,0.80
2024-04-24T14:01:13.970Z,0.80
2024-04-24T14:03:47.099Z,0.90
2024-04-24T14:06:17.189Z,0.85
2024-04-24T14:08:45.090Z,0.80
2024-04-24T14:11:15.682Z,0.80
2024-04-24T14:13:47.879Z,0.80
2024-04-24T14:16:18.201Z,0.80
2024-04-24T14:18:50.881Z,0.88
2024-04-24T14:21:21.527Z,0.80
2024-04-24T14:23:51.757Z,0.90
2024-04-24T14:26:22.894Z,0.90
2024-04-24T14:28:53.193Z,0.88
2024-04-24T14:31:23.232Z,0.90
2024-04-24T14:33:55.954Z,1.05
2024-04-24T14:36:26.710Z,1.00
2024-04-24T14:38:57.783Z,0.93
2024-04-24T14:41:28.130Z,0.90
2024-04-24T14:43:58.324Z,0.90
2024-04-24T14:46:28.575Z,1.00
2024-04-24T14:49:03.311Z,1.10
2024-04-24T14:51:34.030Z,0.85
2024-04-24T14:54:04.055Z,1.08
2024-04-24T14:56:34.282Z,1.00
2024-04-24T14:59:04.327Z,0.80
2024-04-24T15:01:36.383Z,1.00
2024-04-24T15:04:09.765Z,0.90
2024-04-24T15:06:44.141Z,1.08
2024-04-24T15:09:14.244Z,1.00
2024-04-24T15:11:48.337Z,0.90
2024-04-24T15:14:18.688Z,0.98
2024-04-24T15:16:49.076Z,0.90
2024-04-24T15:19:21.740Z,0.77
2024-04-24T15:21:52.000Z,1.08
2024-04-24T15:24:22.623Z,0.70
2024-04-24T15:26:52.641Z,0.77
2024-04-24T15:29:22.668Z,0.82
2024-04-24T15:31:52.826Z,1.00
2024-04-24T15:34:25.518Z,0.75
2024-04-24T15:36:55.702Z,0.93
2024-04-24T15:39:25.680Z,0.90
2024-04-24T15:41:56.364Z,0.80
2024-04-24T15:44:26.510Z,0.95
2024-04-24T15:46:56.989Z,0.80
2024-04-24T15:49:30.138Z,0.90
2024-04-24T15:52:00.434Z,0.88
2024-04-24T15:54:30.467Z,0.80
2024-04-24T15:57:00.483Z,0.80
2024-04-24T15:59:33.312Z,0.70
2024-04-24T16:02:05.481Z,0.82
2024-04-24T16:04:38.260Z,0.75
2024-04-24T16:07:06.524Z,0.80
2024-04-24T16:09:37.357Z,1.10
2024-04-24T16:12:09.182Z,0.90
2024-04-24T16:14:39.560Z,0.98
2024-04-24T16:17:09.799Z,0.90
2024-04-24T16:19:42.567Z,0.90
2024-04-24T16:22:12.857Z,0.98
2024-04-24T16:24:44.532Z,0.90
2024-04-24T16:27:15.582Z,0.93
2024-04-24T16:29:49.946Z,0.90
2024-04-24T16:32:20.666Z,1.08
2024-04-24T16:34:53.415Z,1.00
2024-04-24T16:37:23.381Z,1.10
2024-04-24T16:39:53.951Z,0.90
2024-04-24T16:42:24.109Z,1.50
2024-04-24T16:44:54.877Z,1.10
2024-04-24T16:47:25.492Z,1.10
2024-04-24T16:49:58.309Z,1.10
2024-04-24T16:52:28.268Z,1.00
2024-04-24T16:54:58.991Z,1.00
2024-04-24T16:57:30.233Z,0.90
2024-04-24T17:00:01.095Z,0.80
2024-04-24T17:02:32.994Z,1.10
2024-04-24T17:05:08.554Z,1.00
2024-04-24T17:07:38.670Z,1.00
2024-04-24T17:10:09.949Z,1.00
2024-04-24T17:12:40.352Z,1.10
2024-04-24T17:15:12.085Z,1.08
2024-04-24T17:17:42.272Z,1.00
2024-04-24T17:20:15.517Z,0.80
2024-04-24T17:22:45.518Z,1.00
2024-04-24T17:25:15.871Z,0.90
2024-04-24T17:27:46.027Z,0.80
2024-04-24T17:30:16.075Z,0.82
2024-04-24T17:32:46.169Z,1.10
2024-04-24T17:35:19.323Z,1.50
2024-04-24T17:37:49.402Z,1.17
2024-04-24T17:40:19.515Z,1.20
2024-04-24T17:42:49.493Z,0.93
2024-04-24T17:45:19.819Z,0.80
2024-04-24T17:47:49.999Z,0.80
2024-04-24T17:50:24.756Z,0.90
2024-04-24T17:52:55.018Z,0.80
2024-04-24T17:55:25.564Z,0.75
2024-04-24T17:57:55.696Z,0.70
2024-04-24T18:00:26.434Z,0.80
2024-04-24T18:02:56.569Z,0.80
2024-04-24T18:05:31.016Z,0.77
2024-04-24T18:08:01.276Z,0.63
2024-04-24T18:10:31.531Z,0.70
2024-04-24T18:13:01.620Z,0.60
2024-04-24T18:15:31.582Z,0.80
2024-04-24T18:18:01.774Z,0.80
2024-04-24T18:20:34.749Z,0.80
2024-04-24T18:23:05.079Z,0.73
2024-04-24T18:25:35.440Z,0.77
2024-04-24T18:28:05.492Z,0.80
2024-04-24T18:30:35.484Z,0.70
2024-04-24T18:33:05.677Z,0.90
2024-04-24T18:35:38.502Z,0.90
2024-04-24T18:38:08.868Z,1.00
2024-04-24T18:40:39.407Z,1.33
2024-04-24T18:43:10.445Z,1.20
2024-04-24T18:45:40.601Z,0.93
2024-04-24T18:48:11.443Z,1.00
2024-04-24T18:50:44.486Z,1.00
2024-04-24T18:53:14.807Z,0.90
2024-04-24T18:55:44.860Z,1.00
2024-04-24T18:58:15.037Z,1.00
2024-04-24T19:00:45.186Z,0.90
2024-04-24T19:03:15.196Z,0.90
2024-04-24T19:05:48.088Z,0.88
2024-04-24T19:08:18.284Z,0.98
2024-04-24T19:10:48.464Z,1.10
2024-04-24T19:13:19.166Z,1.00
2024-04-24T19:15:49.263Z,0.98
2024-04-24T19:18:21.467Z,1.00
2024-04-24T19:20:55.173Z,0.90
2024-04-24T19:23:25.991Z,1.10
2024-04-24T19:25:56.846Z,1.00
2024-04-24T19:28:27.018Z,1.15
2024-04-24T19:30:57.068Z,1.20
2024-04-24T19:33:27.406Z,1.10
2024-04-24T19:36:00.400Z,0.98
2024-04-24T19:38:30.513Z,1.00
2024-04-24T19:41:00.831Z,1.05
2024-04-24T19:43:32.459Z,1.08
2024-04-24T19:46:02.695Z,1.05
2024-04-24T19:48:32.845Z,1.00
2024-04-24T19:51:09.833Z,0.90
2024-04-24T19:53:39.919Z,1.00
2024-04-24T19:56:11.091Z,1.00
2024-04-24T19:58:41.154Z,0.80
2024-04-24T20:01:12.479Z,0.90
2024-04-24T20:03:43.082Z,0.80
2024-04-24T20:06:17.100Z,1.00
2024-04-24T20:08:47.190Z,0.98
2024-04-24T20:11:17.384Z,0.85
2024-04-24T20:13:47.606Z,0.80
2024-04-24T20:16:17.924Z,0.90
2024-04-24T20:18:48.042Z,0.90
2024-04-24T20:21:23.262Z,0.70
2024-04-24T20:23:53.284Z,0.70
2024-04-24T20:26:24.928Z,0.80
2024-04-24T20:28:55.768Z,0.85
2024-04-24T20:31:26.606Z,0.90
2024-04-24T20:33:58.787Z,0.82
2024-04-24T20:36:33.246Z,1.17
2024-04-24T20:39:04.967Z,0.70
2024-04-24T20:41:36.133Z,0.90
2024-04-24T20:44:06.624Z,0.93
2024-04-24T20:46:42.067Z,0.90
2024-04-24T20:49:12.176Z,0.90
2024-04-24T20:51:45.075Z,0.90
2024-04-24T20:54:15.183Z,1.13
2024-04-24T20:56:45.408Z,0.90
2024-04-24T20:59:15.574Z,0.90
2024-04-24T21:01:45.665Z,0.98
2024-04-24T21:04:15.804Z,0.90
2024-04-24T21:06:48.517Z,1.10
2024-04-24T21:09:18.622Z,1.02
2024-04-24T21:11:48.893Z,1.20
2024-04-24T21:14:18.943Z,1.30
2024-04-24T21:16:49.145Z,1.10
2024-04-24T21:19:19.080Z,1.30
2024-04-24T21:21:51.859Z,1.15
2024-04-24T21:24:21.825Z,1.40
2024-04-24T21:26:51.817Z,1.30
2024-04-24T21:29:21.780Z,1.40
2024-04-24T21:31:52.605Z,1.20
2024-04-24T21:34:22.683Z,1.45
2024-04-24T21:36:55.311Z,1.40
2024-04-24T21:39:25.419Z,1.23
2024-04-24T21:41:57.373Z,1.38
2024-04-24T21:44:28.457Z,1.35
2024-04-24T21:46:58.853Z,1.40
2024-04-24T21:49:29.407Z,1.20
2024-04-24T21:52:02.484Z,1.40
2024-04-24T21:54:32.552Z,1.40
2024-04-24T21:57:02.658Z,1.15
2024-04-24T21:59:35.820Z,1.20
2024-04-24T22:02:06.086Z,1.27
2024-04-24T22:04:36.124Z,1.38
2024-04-24T22:07:08.802Z,1.20
2024-04-24T22:09:41.405Z,1.40
2024-04-24T22:12:14.118Z,1.40
2024-04-24T22:14:44.373Z,1.30
2024-04-24T22:17:19.710Z,1.40
2024-04-24T22:19:55.362Z,1.40
2024-04-24T22:22:28.030Z,1.20
2024-04-24T22:24:58.077Z,1.38
2024-04-24T22:27:28.214Z,1.50
2024-04-24T22:29:58.137Z,1.48
2024-04-24T22:32:32.447Z,1.20
2024-04-24T22:35:02.572Z,1.15
2024-04-24T22:37:35.532Z,1.20
2024-04-24T22:40:06.320Z,1.20
2024-04-24T22:42:36.344Z,1.30
2024-04-24T22:45:06.931Z,1.10
2024-04-24T22:47:39.669Z,1.08
2024-04-24T22:50:10.892Z,1.10
2024-04-24T22:52:43.611Z,1.27
2024-04-24T22:55:13.658Z,1.20
2024-04-24T22:57:43.738Z,1.00
2024-04-24T23:00:19.244Z,1.10
2024-04-24T23:02:51.148Z,1.00
2024-04-24T23:05:21.286Z,0.95
2024-04-24T23:07:53.986Z,1.30
2024-04-24T23:10:24.068Z,1.10
2024-04-24T23:12:54.456Z,1.00
2024-04-24T23:15:24.571Z,1.10
2024-04-24T23:17:54.906Z,1.02
2024-04-24T23:20:25.242Z,1.30
2024-04-24T23:22:57.918Z,1.10
2024-04-24T23:25:28.827Z,1.30
2024-04-24T23:27:59.080Z,1.02
2024-04-24T23:30:29.679Z,1.02
2024-04-24T23:33:00.374Z,1.10
2024-04-24T23:35:31.116Z,1.13
2024-04-24T23:38:03.953Z,1.05
2024-04-24T23:40:33.964Z,1.10
2024-04-24T23:43:04.123Z,1.20
2024-04-24T23:45:35.561Z,1.05
2024-04-24T23:48:05.705Z,1.25
2024-04-24T23:50:35.851Z,1.30
2024-04-24T23:53:08.811Z,1.30
2024-04-24T23:55:38.862Z,1.00
2024-04-24T23:58:09.137Z,1.35
